Time;durP1;ratioP1;P1;durP2;ratioP2;P2;SDS_P1;SDS_P2;PMS_P1;PMS_P2;Temp;Humidity;BMP_temperature;BMP_pressure;BME280_temperature;BME280_humidity;BME280_pressure;Samples;Min_cycle;Max_cycle;Signal;HPM_P1;HPM_P2
2021/03/17 00:00:45;;;;;;;4.40;3.77;;;;;;;4.24;95.50;99159.47;4928807;28;103837;-78
2021/03/17 00:03:34;;;;;;;4.03;3.73;;;;;;;4.23;96.06;99157.78;4908294;28;103761;-78
2021/03/17 00:06:19;;;;;;;3.50;3.20;;;;;;;4.32;95.92;99160.03;4923685;28;102647;-76
2021/03/17 00:09:05;;;;;;;3.97;3.67;;;;;;;4.26;95.09;99157.66;4928592;28;102828;-77
2021/03/17 00:11:50;;;;;;;3.33;3.03;;;;;;;4.32;95.47;99152.19;4927394;28;103762;-76
2021/03/17 00:14:36;;;;;;;3.93;3.60;;;;;;;4.36;95.07;99151.13;4911573;28;103547;-75
2021/03/17 00:17:22;;;;;;;4.40;4.00;;;;;;;4.35;94.92;99154.69;4928397;28;102842;-78
2021/03/17 00:20:10;;;;;;;3.40;3.10;;;;;;;4.35;95.06;99146.84;4940613;28;102735;-74
2021/03/17 00:22:56;;;;;;;3.40;3.10;;;;;;;4.39;94.61;99148.38;4930678;28;103283;-75
2021/03/17 00:25:43;;;;;;;3.60;3.30;;;;;;;4.44;95.46;99143.81;4926558;28;105362;-76
2021/03/17 00:28:28;;;;;;;4.33;3.97;;;;;;;4.41;94.84;99146.56;4928606;28;102573;-74
2021/03/17 00:31:14;;;;;;;4.40;4.00;;;;;;;4.28;95.25;99146.22;4928317;28;102859;-75
2021/03/17 00:34:00;;;;;;;3.47;3.17;;;;;;;4.40;95.00;99144.88;4926700;28;103767;-77
2021/03/17 00:36:46;;;;;;;3.50;3.20;;;;;;;4.46;94.35;99139.41;4928064;28;103667;-74
2021/03/17 00:39:32;;;;;;;4.70;3.50;;;;;;;4.40;94.74;99134.41;4922213;28;103794;-74
2021/03/17 00:42:58;;;;;;;3.70;3.40;;;;;;;4.46;95.13;99129.75;4927177;28;102957;-75
2021/03/17 00:45:43;;;;;;;4.13;3.30;;;;;;;4.36;95.39;99132.81;4929902;28;104365;-77
2021/03/17 00:48:14;;;;;;;3.43;3.13;;;;;;;4.40;95.05;99129.19;4931394;28;105047;-75
2021/03/17 00:50:49;;;;;;;4.13;3.73;;;;;;;4.33;95.14;99123.34;4927638;28;102672;-75
2021/03/17 00:53:18;;;;;;;3.80;3.50;;;;;;;4.43;95.23;99126.44;4927805;28;102934;-76
2021/03/17 00:55:45;;;;;;;3.97;3.60;;;;;;;4.36;94.94;99123.22;4909929;28;103354;-76
2021/03/17 00:58:22;;;;;;;4.03;3.63;;;;;;;4.25;95.63;99124.56;4927551;28;103679;-74
2021/03/17 01:00:49;;;;;;;4.00;3.70;;;;;;;4.28;95.21;99124.44;4914155;28;102606;-75
2021/03/17 01:03:16;;;;;;;4.20;3.80;;;;;;;4.13;96.38;99118.03;4927491;28;102906;-75
2021/03/17 01:05:43;;;;;;;4.17;3.77;;;;;;;4.23;96.43;99116.78;4927301;28;103921;-75
2021/03/17 01:08:10;;;;;;;4.37;3.97;;;;;;;4.30;95.76;99112.13;4927538;28;103786;-75
2021/03/17 01:10:41;;;;;;;3.70;3.40;;;;;;;4.29;95.72;99111.31;4906979;28;102898;-75
2021/03/17 01:13:08;;;;;;;4.33;3.73;;;;;;;4.29;96.00;99113.06;4927028;28;103771;-75
2021/03/17 01:15:36;;;;;;;4.70;4.30;;;;;;;4.26;95.92;99116.66;4945168;28;103211;-78
2021/03/17 01:18:04;;;;;;;3.50;3.20;;;;;;;4.32;96.10;99111.19;4947681;28;104793;-75
2021/03/17 01:20:33;;;;;;;4.37;3.97;;;;;;;4.31;95.77;99106.00;4945300;28;103505;-75
2021/03/17 01:23:00;;;;;;;4.50;4.10;;;;;;;4.34;96.18;99114.59;4927680;28;103069;-75
2021/03/17 01:25:30;;;;;;;4.27;3.87;;;;;;;4.34;96.47;99093.66;4925739;28;104196;-75
2021/03/17 01:28:02;;;;;;;4.40;4.00;;;;;;;4.24;97.05;99099.34;4926370;28;104295;-75
2021/03/17 01:30:32;;;;;;;4.03;3.63;;;;;;;4.25;97.07;99101.00;4927741;28;102574;-75
2021/03/17 01:33:00;;;;;;;3.90;3.60;;;;;;;4.28;96.94;99098.28;4927221;28;102699;-77
2021/03/17 01:35:28;;;;;;;3.60;3.30;;;;;;;4.21;98.08;99102.06;4925715;28;104387;-75
2021/03/17 01:37:55;;;;;;;4.20;3.80;;;;;;;4.30;97.44;99097.28;4933621;28;103755;-76
2021/03/17 01:40:26;;;;;;;4.90;4.50;;;;;;;4.30;96.68;99102.53;4939656;28;103171;-78
2021/03/17 01:42:54;;;;;;;4.93;4.07;;;;;;;4.30;96.59;99099.06;4925201;28;103375;-76
2021/03/17 01:45:23;;;;;;;4.37;3.97;;;;;;;4.32;96.45;99099.88;4926061;28;105360;-75
2021/03/17 01:47:52;;;;;;;4.57;4.17;;;;;;;4.34;95.89;99100.66;4929703;28;105217;-75
2021/03/17 01:50:21;;;;;;;4.17;3.80;;;;;;;4.32;96.53;99099.88;4917742;28;103574;-74
2021/03/17 01:52:49;;;;;;;4.70;4.20;;;;;;;4.31;95.89;99099.00;4914461;28;102890;-75
2021/03/17 01:55:18;;;;;;;4.23;3.73;;;;;;;4.30;95.91;99099.06;4926546;28;103205;-75
2021/03/17 01:57:46;;;;;;;4.63;4.20;;;;;;;4.27;96.64;99093.94;4909284;28;106253;-75
2021/03/17 02:00:15;;;;;;;4.70;4.30;;;;;;;4.09;96.24;99104.25;4936568;28;102698;-74
2021/03/17 02:02:47;;;;;;;4.03;3.50;;;;;;;4.14;96.83;99095.38;4923692;28;103173;-74
2021/03/17 02:05:17;;;;;;;4.40;4.00;;;;;;;4.16;96.63;99097.00;4940766;28;103256;-75
2021/03/17 02:07:44;;;;;;;4.03;3.60;;;;;;;4.20;95.89;99090.75;4927383;28;103820;-75
2021/03/17 02:10:13;;;;;;;3.70;3.40;;;;;;;4.17;95.63;99087.41;4936896;28;103175;-74
2021/03/17 02:12:48;;;;;;;3.73;3.43;;;;;;;4.16;96.54;99097.00;4934108;28;102991;-75
2021/03/17 02:15:48;;;;;;;3.20;2.90;;;;;;;4.12;96.15;99092.81;4919544;28;103850;-76
2021/03/17 02:18:29;;;;;;;3.63;2.70;;;;;;;4.06;96.84;99093.06;4926703;28;103260;-75
2021/03/17 02:21:16;;;;;;;3.87;3.57;;;;;;;4.03;96.33;99098.41;4926673;28;102931;-76
2021/03/17 02:23:54;;;;;;;2.60;2.40;;;;;;;4.04;96.47;99095.72;4933635;28;103987;-75
2021/03/17 02:26:48;;;;;;;3.03;2.83;;;;;;;4.03;96.46;99094.03;4928714;28;103914;-77
2021/03/17 02:29:44;;;;;;;3.03;2.73;;;;;;;4.05;95.63;99092.22;4918459;28;103802;-75
2021/03/17 02:32:17;;;;;;;3.40;3.10;;;;;;;4.06;96.24;99098.28;4877115;28;102943;-81
2021/03/17 02:34:50;;;;;;;3.40;3.10;;;;;;;4.13;96.28;99098.91;4940835;28;103029;-76
2021/03/17 02:37:22;;;;;;;3.03;2.83;;;;;;;4.06;96.08;99093.06;4945383;28;104953;-78
2021/03/17 02:39:55;;;;;;;3.30;3.00;;;;;;;4.09;95.97;99093.81;4912625;28;104968;-75
2021/03/17 02:42:27;;;;;;;3.27;3.03;;;;;;;4.07;95.41;99089.50;4923838;28;102883;-77
2021/03/17 02:45:05;;;;;;;3.60;3.30;;;;;;;4.05;96.51;99093.97;4926533;28;102791;-77
2021/03/17 02:47:36;;;;;;;3.20;3.00;;;;;;;4.05;96.27;99094.81;4908770;28;103906;-76
2021/03/17 06:04:16;;;;;;;9.50;8.43;;;;;;;3.46;100.00;99172.88;4873445;23;106055;-77
2021/03/17 06:06:45;;;;;;;10.83;9.13;;;;;;;3.54;100.00;99177.81;4877477;28;105100;-77
2021/03/17 06:09:15;;;;;;;9.37;8.37;;;;;;;3.50;100.00;99174.50;4888607;28;103249;-73
2021/03/17 06:11:42;;;;;;;11.93;10.07;;;;;;;3.50;100.00;99181.47;4892640;28;104074;-71
2021/03/17 06:14:17;;;;;;;11.57;10.37;;;;;;;3.46;100.00;99174.63;4874388;28;103706;-69
2021/03/17 06:16:45;;;;;;;11.57;10.37;;;;;;;3.49;100.00;99179.75;4899133;28;104275;-73
2021/03/17 06:19:16;;;;;;;11.73;10.50;;;;;;;3.49;100.00;99185.84;4877852;28;103099;-74
2021/03/17 06:21:43;;;;;;;9.90;8.97;;;;;;;3.68;100.00;99183.41;4877749;28;102829;-75
2021/03/17 06:24:11;;;;;;;11.27;10.07;;;;;;;3.67;100.00;99188.69;4878372;28;106622;-79
2021/03/17 06:26:39;;;;;;;12.27;10.27;;;;;;;3.80;100.00;99188.19;4871917;28;104320;-77
2021/03/17 06:29:07;;;;;;;12.50;11.27;;;;;;;3.73;100.00;99188.47;4881669;28;102877;-71
2021/03/17 06:31:35;;;;;;;12.93;11.60;;;;;;;3.66;100.00;99198.28;4891848;28;102735;-76
2021/03/17 06:34:03;;;;;;;12.67;11.47;;;;;;;3.74;100.00;99204.09;4874826;28;104198;-72
2021/03/17 06:36:31;;;;;;;13.17;11.30;;;;;;;3.61;100.00;99200.22;4897038;28;104264;-72
2021/03/17 06:39:07;;;;;;;12.67;11.37;;;;;;;3.68;100.00;99206.91;4896668;28;102649;-73
2021/03/17 06:41:43;;;;;;;12.93;11.63;;;;;;;3.70;100.00;99199.03;4877328;28;102860;-73
2021/03/17 06:44:10;;;;;;;12.67;11.30;;;;;;;3.66;100.00;99205.28;4891403;28;103900;-78
2021/03/17 06:46:37;;;;;;;12.57;11.27;;;;;;;3.70;100.00;99207.72;4893929;28;103760;-76
2021/03/17 06:49:05;;;;;;;12.40;10.57;;;;;;;3.92;100.00;99203.41;4893252;28;103061;-75
2021/03/17 06:51:33;;;;;;;11.70;10.50;;;;;;;3.84;100.00;99205.47;4887621;28;103111;-75
2021/03/17 06:54:02;;;;;;;13.87;12.43;;;;;;;3.67;100.00;99218.28;4882057;28;104233;-74
2021/03/17 06:56:30;;;;;;;14.80;13.20;;;;;;;3.75;100.00;99213.63;4862421;28;104971;-73
2021/03/17 06:58:59;;;;;;;17.77;15.97;;;;;;;3.56;100.00;99222.19;4887424;28;102971;-74
2021/03/17 07:01:32;;;;;;;15.70;14.10;;;;;;;3.79;100.00;99224.84;4884992;28;103362;-75
2021/03/17 07:04:01;;;;;;;16.67;14.97;;;;;;;3.94;100.00;99219.88;4901367;28;105286;-75
2021/03/17 07:06:29;;;;;;;14.60;13.10;;;;;;;4.01;100.00;99229.19;4918766;28;104726;-77
2021/03/17 07:08:58;;;;;;;14.50;13.10;;;;;;;4.03;100.00;99230.00;4906943;28;103160;-75
2021/03/17 07:11:30;;;;;;;13.93;11.87;;;;;;;4.14;99.70;99226.97;4923346;28;103566;-74
2021/03/17 07:14:04;;;;;;;11.30;10.07;;;;;;;4.28;99.48;99218.59;4912956;28;104241;-73
2021/03/17 07:16:37;;;;;;;12.23;10.93;;;;;;;4.27;98.02;99222.13;4928571;28;104441;-73
2021/03/17 07:19:32;;;;;;;12.00;10.70;;;;;;;4.37;97.49;99228.72;4928824;28;103059;-74
2021/03/17 07:22:07;;;;;;;14.90;11.80;;;;;;;4.43;98.48;99223.25;4927525;28;104210;-73
2021/03/17 07:24:36;;;;;;;12.27;10.67;;;;;;;4.50;98.81;99224.69;4927932;28;103991;-73
2021/03/17 07:27:15;;;;;;;11.60;10.40;;;;;;;4.45;99.11;99222.25;4925091;28;103478;-77
2021/03/17 07:29:43;;;;;;;10.97;9.87;;;;;;;4.60;98.10;99232.09;4917927;28;103609;-74
2021/03/17 07:32:10;;;;;;;9.60;8.60;;;;;;;4.62;97.95;99226.84;4925496;28;103205;-74
2021/03/17 07:34:38;;;;;;;11.73;10.53;;;;;;;4.66;97.62;99239.72;4922472;28;103918;-72
2021/03/17 07:37:07;;;;;;;9.60;8.67;;;;;;;4.79;96.67;99239.25;4926317;28;104335;-73
2021/03/17 07:39:38;;;;;;;10.23;8.47;;;;;;;4.87;95.77;99240.63;4925061;28;103084;-74
2021/03/17 07:42:08;;;;;;;9.67;8.67;;;;;;;4.85;95.54;99236.38;4926689;28;102832;-74
2021/03/17 07:44:40;;;;;;;11.13;10.03;;;;;;;4.72;95.37;99243.00;4911974;28;103439;-74
2021/03/17 07:47:08;;;;;;;9.67;8.50;;;;;;;4.80;95.05;99247.00;4903267;28;106554;-73
2021/03/17 07:49:47;;;;;;;11.77;10.57;;;;;;;4.54;94.97;99247.22;4901817;28;102941;-74
2021/03/17 07:52:19;;;;;;;10.50;9.37;;;;;;;4.49;95.90;99243.94;4927700;28;104025;-73
2021/03/17 07:54:54;;;;;;;10.50;9.50;;;;;;;4.55;94.57;99249.75;4910526;28;107338;-76
2021/03/17 07:57:28;;;;;;;11.77;9.43;;;;;;;4.64;94.38;99238.09;4925118;28;104259;-73
2021/03/17 07:59:56;;;;;;;10.47;9.47;;;;;;;4.79;94.75;99247.94;4927517;28;102651;-73
2021/03/17 08:02:24;;;;;;;10.20;9.10;;;;;;;4.82;95.22;99242.59;4931314;28;103081;-73
2021/03/17 08:04:53;;;;;;;9.83;8.83;;;;;;;4.84;93.42;99251.22;4926813;28;103926;-73
2021/03/17 08:07:21;;;;;;;10.63;8.60;;;;;;;4.85;93.94;99234.63;4923767;28;104422;-70
2021/03/17 08:09:50;;;;;;;8.83;7.93;;;;;;;4.99;93.98;99237.53;4928190;28;102500;-70
2021/03/17 08:12:20;;;;;;;9.27;8.30;;;;;;;5.08;92.95;99242.34;4926962;28;103330;-72
2021/03/17 08:14:48;;;;;;;11.07;9.40;;;;;;;5.45;88.43;99239.03;4927260;28;105467;-73
2021/03/17 08:17:30;;;;;;;10.13;8.67;;;;;;;6.50;88.15;99239.53;4926359;28;103683;-72
2021/03/17 08:20:15;;;;;;;9.23;8.30;;;;;;;7.37;84.53;99250.97;4926583;28;103142;-73
2021/03/17 08:22:43;;;;;;;9.27;8.27;;;;;;;7.05;82.13;99246.44;4915358;28;103217;-71
2021/03/17 08:25:11;;;;;;;9.70;8.70;;;;;;;7.39;82.95;99245.59;4925747;28;106073;-70
2021/03/17 08:27:40;;;;;;;10.83;9.57;;;;;;;6.79;81.41;99250.34;4924603;28;103698;-70
2021/03/17 08:30:12;;;;;;;11.93;10.07;;;;;;;6.14;86.51;99248.22;4922064;28;103535;-70
2021/03/17 08:32:57;;;;;;;11.77;10.57;;;;;;;6.02;86.67;99251.38;4925441;28;103034;-71
2021/03/17 08:35:45;;;;;;;12.23;9.53;;;;;;;6.97;82.60;99243.34;4917350;28;103344;-70
2021/03/17 08:38:14;;;;;;;10.37;9.27;;;;;;;7.40;79.35;99237.66;4925233;28;103955;-71
2021/03/17 08:40:46;;;;;;;12.83;9.40;;;;;;;6.29;78.09;99250.13;4924957;28;103109;-73
2021/03/17 08:43:41;;;;;;;10.13;8.60;;;;;;;6.60;79.74;99246.91;4916879;28;103419;-75
2021/03/17 08:46:11;;;;;;;11.07;9.37;;;;;;;7.14;78.19;99242.50;4922080;28;103919;-73
2021/03/17 08:49:00;;;;;;;10.17;8.37;;;;;;;8.60;73.12;99239.97;4925893;28;103746;-73
2021/03/17 08:51:59;;;;;;;10.73;8.27;;;;;;;8.61;70.38;99233.78;4898399;28;103116;-74
2021/03/17 08:54:46;;;;;;;8.70;7.80;;;;;;;8.66;73.98;99226.47;4922561;28;103052;-73
2021/03/17 08:57:14;;;;;;;7.77;7.07;;;;;;;8.61;74.74;99231.16;4927181;28;103907;-73
2021/03/17 08:59:44;;;;;;;8.33;5.83;;;;;;;8.29;71.10;99221.53;4923795;28;105120;-73
2021/03/17 09:02:19;;;;;;;5.63;5.13;;;;;;;8.13;70.73;99224.13;4925533;28;103391;-74
2021/03/17 09:04:47;;;;;;;8.20;6.37;;;;;;;7.93;72.62;99220.84;4915235;28;103337;-74
2021/03/17 09:07:16;;;;;;;7.00;5.83;;;;;;;7.43;70.43;99227.00;4917835;28;104751;-73
2021/03/17 09:09:49;;;;;;;5.83;5.33;;;;;;;7.78;72.75;99225.13;4914703;28;103299;-73
2021/03/17 09:12:18;;;;;;;5.83;5.03;;;;;;;7.75;70.74;99213.94;4915816;28;103016;-74
2021/03/17 09:14:46;;;;;;;5.40;4.90;;;;;;;8.00;71.41;99214.34;4914354;28;102959;-73
2021/03/17 09:17:25;;;;;;;5.70;5.20;;;;;;;9.21;64.14;99210.94;4908260;28;105568;-76
2021/03/17 09:20:06;;;;;;;6.53;5.80;;;;;;;8.53;64.83;99220.16;4915004;28;103802;-73
2021/03/17 09:22:42;;;;;;;5.80;5.07;;;;;;;9.86;62.61;99219.34;4905208;28;103021;-74
2021/03/17 09:25:31;;;;;;;5.37;4.87;;;;;;;9.76;62.34;99213.78;4914056;28;103133;-73
2021/03/17 09:28:05;;;;;;;5.23;4.70;;;;;;;10.20;64.67;99205.78;4913812;28;103413;-72
2021/03/17 09:30:40;;;;;;;6.13;5.20;;;;;;;9.33;62.68;99206.75;4883311;28;107261;-76
2021/03/17 09:33:10;;;;;;;6.10;5.13;;;;;;;9.56;63.80;99213.28;4892692;28;103337;-74
2021/03/17 09:35:38;;;;;;;5.77;5.10;;;;;;;9.11;65.73;99216.84;4895558;28;103144;-75
2021/03/17 09:38:11;;;;;;;7.00;5.10;;;;;;;8.70;65.40;99220.06;4895932;28;104690;-75
2021/03/17 09:40:46;;;;;;;5.83;4.87;;;;;;;8.18;66.02;99226.50;4888180;28;104440;-74
2021/03/17 09:43:41;;;;;;;5.03;4.20;;;;;;;7.91;67.72;99228.00;4903860;28;103349;-73
2021/03/17 09:46:31;;;;;;;6.10;4.97;;;;;;;7.07;67.72;99220.09;4887558;28;103502;-76
2021/03/17 09:49:04;;;;;;;7.33;5.90;;;;;;;7.70;66.73;99221.22;4900210;28;103709;-75
2021/03/17 09:51:33;;;;;;;6.77;6.03;;;;;;;8.16;67.45;99207.31;4895389;28;105348;-72
2021/03/17 09:54:03;;;;;;;6.50;5.27;;;;;;;7.71;65.85;99215.03;4898290;28;104486;-78
2021/03/17 09:56:40;;;;;;;7.33;6.17;;;;;;;7.46;68.57;99211.06;4877657;28;103701;-73
2021/03/17 09:59:18;;;;;;;7.07;5.60;;;;;;;7.77;67.99;99209.44;4910490;28;104369;-73
2021/03/17 10:01:58;;;;;;;6.83;6.13;;;;;;;7.05;68.50;99212.28;4902157;28;105822;-73
2021/03/17 10:04:27;;;;;;;6.60;5.90;;;;;;;7.42;70.85;99204.25;4901284;28;103852;-73
2021/03/17 10:06:55;;;;;;;6.10;5.33;;;;;;;8.13;67.05;99199.59;4898277;28;103152;-72
2021/03/17 10:09:24;;;;;;;6.00;5.27;;;;;;;7.73;66.46;99202.63;4895877;28;107898;-79
2021/03/17 10:11:59;;;;;;;4.37;3.90;;;;;;;8.11;70.16;99196.19;4882553;28;111305;-73
2021/03/17 10:14:26;;;;;;;5.00;4.37;;;;;;;7.87;68.62;99200.13;4912501;28;103296;-79
2021/03/17 10:16:56;;;;;;;6.03;5.20;;;;;;;8.21;67.74;99194.75;4901156;28;103370;-74
2021/03/17 10:19:28;;;;;;;5.30;4.10;;;;;;;7.77;67.97;99201.56;4905790;28;104957;-74
2021/03/17 10:21:55;;;;;;;5.20;4.13;;;;;;;8.22;67.05;99201.72;4908597;28;103693;-73
2021/03/17 10:24:32;;;;;;;4.77;4.13;;;;;;;8.31;64.11;99190.69;4896742;28;103354;-73
2021/03/17 10:27:00;;;;;;;4.53;4.10;;;;;;;8.13;67.97;99196.94;4903927;28;104052;-73
2021/03/17 10:29:27;;;;;;;5.10;4.10;;;;;;;7.94;65.30;99191.00;4897129;28;105374;-73
2021/03/17 10:31:56;;;;;;;4.40;4.00;;;;;;;7.08;68.59;99185.00;4903396;28;103674;-72
2021/03/17 10:34:26;;;;;;;3.63;3.33;;;;;;;7.67;67.63;99184.53;4901671;28;103300;-81
2021/03/17 10:36:54;;;;;;;4.20;3.80;;;;;;;7.88;66.30;99186.91;4904084;28;103010;-79
2021/03/17 10:39:26;;;;;;;4.67;4.17;;;;;;;8.39;66.93;99180.59;4892161;28;104015;-70
2021/03/17 10:41:53;;;;;;;4.40;4.00;;;;;;;8.45;64.14;99174.16;4898225;28;104796;-75
2021/03/17 10:44:22;;;;;;;6.20;3.37;;;;;;;7.87;64.28;99179.09;4889588;28;103333;-74
2021/03/17 10:47:02;;;;;;;4.40;3.33;;;;;;;7.89;63.80;99182.47;4906362;28;103109;-77
2021/03/17 10:49:29;;;;;;;4.13;3.30;;;;;;;7.25;65.02;99183.22;4901545;28;104009;-76
2021/03/17 10:52:07;;;;;;;4.53;4.13;;;;;;;6.89;67.34;99177.22;4908342;28;104678;-79
2021/03/17 10:54:38;;;;;;;4.87;4.47;;;;;;;7.02;68.21;99175.66;4901783;28;102937;-74
2021/03/17 10:57:24;;;;;;;5.30;3.90;;;;;;;7.24;66.78;99178.88;4893255;28;103661;-73
2021/03/17 10:59:51;;;;;;;3.30;3.00;;;;;;;6.90;65.43;99179.78;4896321;28;104481;-72
2021/03/17 11:02:25;;;;;;;3.40;3.10;;;;;;;7.09;64.00;99179.69;4913465;28;105076;-71
2021/03/17 11:05:30;;;;;;;3.77;2.83;;;;;;;6.94;65.90;99185.69;4898088;28;102902;-72
2021/03/17 11:08:11;;;;;;;5.93;4.50;;;;;;;6.40;71.35;99184.84;4916085;28;105826;-72
2021/03/17 11:11:04;;;;;;;6.83;4.97;;;;;;;6.46;73.15;99180.25;4909330;28;104446;-72
2021/03/17 11:13:36;;;;;;;7.70;4.93;;;;;;;6.53;73.47;99179.00;4917623;28;104589;-74
2021/03/17 11:16:19;;;;;;;5.97;4.57;;;;;;;6.73;73.44;99189.41;4916284;28;104200;-71
2021/03/17 11:18:51;;;;;;;7.90;5.67;;;;;;;6.10;75.57;99188.91;4908658;28;103202;-72
2021/03/17 11:21:26;;;;;;;5.97;5.40;;;;;;;6.16;76.80;99193.03;4907597;28;103734;-72
2021/03/17 11:23:55;;;;;;;6.07;5.47;;;;;;;5.94;78.50;99189.69;4909611;28;104330;-72
2021/03/17 11:26:28;;;;;;;6.93;5.77;;;;;;;5.69;78.60;99192.56;4926541;28;104243;-74
2021/03/17 11:28:59;;;;;;;6.27;5.13;;;;;;;6.22;77.72;99187.50;4918816;28;103024;-75
2021/03/17 11:31:29;;;;;;;6.87;5.80;;;;;;;6.47;76.82;99182.78;4917786;28;110437;-74
2021/03/17 11:33:58;;;;;;;6.83;5.60;;;;;;;5.89;78.45;99189.06;4907256;28;104303;-75
2021/03/17 11:36:27;;;;;;;7.70;6.33;;;;;;;5.65;79.88;99193.59;4892071;28;104530;-75
2021/03/17 11:38:57;;;;;;;9.07;6.30;;;;;;;5.66;80.09;99203.19;4900723;28;105051;-75
2021/03/17 11:41:25;;;;;;;7.87;6.00;;;;;;;5.48;79.44;99202.22;4909746;28;103555;-75
2021/03/17 11:43:53;;;;;;;4.50;3.67;;;;;;;5.50;78.71;99210.84;4909419;28;103702;-75
2021/03/17 11:46:20;;;;;;;4.37;3.73;;;;;;;5.13;81.81;99211.59;4923260;28;103155;-75
2021/03/17 11:48:48;;;;;;;6.13;4.90;;;;;;;4.85;85.68;99213.66;4913587;28;103492;-74
2021/03/17 11:51:17;;;;;;;7.33;6.40;;;;;;;4.41;88.33;99219.81;4923616;28;103891;-74
2021/03/17 11:53:44;;;;;;;11.30;7.53;;;;;;;4.01;91.25;99218.72;4907673;28;104052;-75
2021/03/17 11:56:13;;;;;;;9.53;8.53;;;;;;;4.08;93.63;99225.44;4909701;28;103778;-76
2021/03/17 11:58:41;;;;;;;10.13;8.60;;;;;;;3.74;94.37;99227.59;4905431;28;102969;-76
2021/03/17 12:01:08;;;;;;;11.70;8.53;;;;;;;3.68;95.47;99227.00;4915532;28;103840;-76
2021/03/17 12:03:38;;;;;;;9.93;8.60;;;;;;;3.31;95.27;99219.59;4901744;28;104183;-76
2021/03/17 12:06:06;;;;;;;11.53;8.70;;;;;;;3.60;97.28;99226.38;4887989;28;103001;-76
2021/03/17 12:08:36;;;;;;;10.57;7.93;;;;;;;3.57;97.02;99224.75;4884391;28;103663;-78
2021/03/17 12:11:17;;;;;;;10.23;8.10;;;;;;;3.82;96.13;99217.72;4884651;28;110119;-76
2021/03/17 12:13:44;;;;;;;10.27;7.70;;;;;;;3.63;96.96;99208.00;4881247;28;103934;-78
2021/03/17 12:16:11;;;;;;;8.97;7.37;;;;;;;3.62;97.81;99217.59;4877118;28;103207;-80
2021/03/17 12:18:39;;;;;;;10.13;8.17;;;;;;;3.77;96.67;99216.19;4887517;28;103173;-81
2021/03/17 12:21:06;;;;;;;10.50;8.37;;;;;;;3.89;96.98;99210.50;4885588;28;103398;-79
2021/03/17 12:23:36;;;;;;;8.83;7.87;;;;;;;3.89;95.57;99216.59;4886252;28;104239;-75
2021/03/17 12:26:03;;;;;;;10.20;7.90;;;;;;;3.49;96.16;99214.56;4885272;28;103328;-77
2021/03/17 12:28:30;;;;;;;12.83;8.90;;;;;;;3.88;96.52;99207.03;4878649;28;103102;-77
2021/03/17 12:30:58;;;;;;;15.63;12.87;;;;;;;3.83;96.53;99203.75;4886784;28;104272;-79
2021/03/17 12:33:25;;;;;;;11.63;9.37;;;;;;;3.72;98.23;99207.66;4885485;28;103699;-79
2021/03/17 12:35:52;;;;;;;10.20;8.10;;;;;;;3.84;98.34;99213.31;4885224;28;104093;-78
2021/03/17 12:38:20;;;;;;;8.30;7.37;;;;;;;3.95;98.84;99205.91;4887372;28;102948;-77
2021/03/17 12:40:48;;;;;;;8.03;7.07;;;;;;;4.26;97.16;99199.50;4883441;28;104249;-79
2021/03/17 12:43:16;;;;;;;7.00;6.27;;;;;;;4.06;96.72;99197.66;4893511;28;104495;-77
2021/03/17 12:45:45;;;;;;;7.43;6.63;;;;;;;4.26;94.61;99189.03;4898023;28;103030;-77
2021/03/17 12:48:14;;;;;;;8.20;6.87;;;;;;;4.40;93.36;99191.97;4906653;28;103046;-77
2021/03/17 12:50:42;;;;;;;9.50;7.10;;;;;;;4.65;95.81;99180.47;4872187;28;105624;-78
2021/03/17 12:53:09;;;;;;;6.57;5.87;;;;;;;4.82;93.09;99184.13;4878370;28;103667;-81
2021/03/17 12:55:36;;;;;;;8.23;5.70;;;;;;;4.81;92.47;99177.19;4886316;28;103302;-80
2021/03/17 12:58:05;;;;;;;7.40;5.87;;;;;;;4.99;93.70;99177.28;4868960;28;103442;-79
2021/03/17 13:00:32;;;;;;;6.57;5.17;;;;;;;5.20;93.24;99172.88;4885883;28;104253;-77
2021/03/17 13:02:59;;;;;;;7.30;6.10;;;;;;;5.08;91.12;99166.41;4896106;28;104215;-77
2021/03/17 13:05:26;;;;;;;7.70;6.50;;;;;;;5.10;91.55;99169.81;4897583;28;103257;-76
2021/03/17 13:07:55;;;;;;;5.90;5.30;;;;;;;5.17;89.87;99175.63;4906600;28;103060;-77
2021/03/17 13:10:25;;;;;;;6.73;5.77;;;;;;;5.10;90.88;99164.59;4899685;28;104280;-78
2021/03/17 13:12:52;;;;;;;7.70;5.30;;;;;;;5.10;92.76;99167.22;4908937;28;103912;-80
2021/03/17 13:15:21;;;;;;;7.47;5.77;;;;;;;5.41;93.11;99164.09;4906558;28;103083;-76
2021/03/17 13:17:49;;;;;;;7.57;6.40;;;;;;;5.28;89.76;99163.78;4905020;28;103118;-77
2021/03/17 13:20:19;;;;;;;5.80;5.20;;;;;;;5.66;89.87;99161.22;4923937;28;103794;-78
2021/03/17 13:22:47;;;;;;;8.07;6.80;;;;;;;5.66;88.41;99159.47;4923207;28;103707;-73
2021/03/17 13:25:15;;;;;;;9.53;6.83;;;;;;;5.87;90.68;99155.03;4933557;28;103170;-78
2021/03/17 13:27:43;;;;;;;8.93;7.50;;;;;;;5.73;90.19;99150.38;4925234;28;103285;-77
2021/03/17 13:30:11;;;;;;;8.67;7.77;;;;;;;5.86;89.47;99145.47;4920078;28;103924;-75
2021/03/17 13:32:39;;;;;;;8.93;7.53;;;;;;;5.93;90.90;99144.25;4923388;28;103696;-76
2021/03/17 13:35:08;;;;;;;7.80;6.70;;;;;;;6.10;91.07;99144.31;4922187;28;103041;-76
2021/03/17 13:37:36;;;;;;;9.83;8.13;;;;;;;5.92;88.92;99139.97;4924461;28;102956;-76
2021/03/17 13:40:07;;;;;;;9.47;8.27;;;;;;;6.33;89.32;99133.59;4921727;28;104921;-72
2021/03/17 13:42:34;;;;;;;9.70;7.57;;;;;;;6.06;87.24;99127.03;4922812;28;103853;-73
2021/03/17 13:45:03;;;;;;;12.23;9.57;;;;;;;5.92;88.27;99134.72;4923696;28;103290;-72
2021/03/17 13:47:30;;;;;;;11.87;9.50;;;;;;;5.76;90.60;99133.66;4921321;28;103077;-74
2021/03/17 13:49:59;;;;;;;11.57;9.10;;;;;;;5.80;91.03;99135.25;4922198;28;105412;-78
2021/03/17 13:52:27;;;;;;;12.17;9.93;;;;;;;6.04;91.32;99131.50;4922513;28;104295;-75
2021/03/17 13:54:54;;;;;;;11.90;9.73;;;;;;;6.02;87.24;99138.59;4912506;28;105717;-76
2021/03/17 13:57:22;;;;;;;10.77;9.60;;;;;;;6.26;87.06;99129.53;4923267;28;103072;-76
2021/03/17 13:59:49;;;;;;;10.50;9.40;;;;;;;6.57;87.37;99134.16;4920116;28;104599;-80
2021/03/17 14:02:16;;;;;;;11.67;8.93;;;;;;;6.82;89.47;99126.75;4918902;28;104066;-74
2021/03/17 14:04:43;;;;;;;8.20;7.37;;;;;;;7.00;86.64;99122.34;4921449;28;103542;-76
2021/03/17 14:07:11;;;;;;;12.40;9.50;;;;;;;6.68;85.60;99120.50;4928291;28;102687;-75
2021/03/17 14:09:38;;;;;;;9.93;8.93;;;;;;;6.57;87.23;99117.56;4921474;28;104283;-74
2021/03/17 14:12:07;;;;;;;9.60;8.20;;;;;;;6.57;88.25;99122.81;4926303;28;103689;-79
2021/03/17 14:14:34;;;;;;;8.83;7.93;;;;;;;6.43;87.49;99112.97;4928333;28;103120;-76
2021/03/17 14:17:01;;;;;;;9.77;8.80;;;;;;;6.19;87.71;99117.66;4929402;28;102777;-78
2021/03/17 14:19:29;;;;;;;7.93;7.10;;;;;;;6.15;86.77;99118.72;4920948;28;104633;-77
2021/03/17 14:21:56;;;;;;;8.87;7.93;;;;;;;6.09;86.69;99113.75;4903776;28;103802;-79
2021/03/17 14:24:28;;;;;;;8.73;6.63;;;;;;;6.27;85.20;99105.00;4921415;28;103012;-75
2021/03/17 14:26:55;;;;;;;8.70;7.13;;;;;;;6.24;85.57;99107.78;4922931;28;103243;-75
2021/03/17 14:29:22;;;;;;;7.33;6.63;;;;;;;6.41;85.99;99106.97;4903302;28;104735;-76
2021/03/17 14:31:50;;;;;;;6.00;5.40;;;;;;;6.32;85.22;99105.63;4927322;28;103782;-76
2021/03/17 14:34:18;;;;;;;6.60;5.97;;;;;;;6.34;85.47;99106.41;4924144;28;103235;-78
2021/03/17 14:36:45;;;;;;;6.13;5.53;;;;;;;6.65;85.24;99099.66;4924330;28;102918;-75
2021/03/17 14:39:13;;;;;;;5.70;5.10;;;;;;;6.63;84.97;99097.09;4923614;28;103850;-77
2021/03/17 14:41:41;;;;;;;5.17;4.67;;;;;;;6.98;83.71;99104.06;4921352;28;105587;-72
2021/03/17 14:44:21;;;;;;;4.07;3.77;;;;;;;7.20;83.29;99092.41;4921973;28;102925;-71
2021/03/17 14:46:49;;;;;;;5.40;4.90;;;;;;;6.98;83.19;99109.31;4922684;28;102664;-71
2021/03/17 14:49:16;;;;;;;5.40;4.90;;;;;;;6.45;83.40;99115.53;4920597;28;104721;-73
2021/03/17 14:51:43;;;;;;;2.67;2.47;;;;;;;4.49;89.47;99142.72;4924741;28;103716;-72
2021/03/17 14:54:13;;;;;;;2.60;2.40;;;;;;;4.08;94.68;99147.00;4918028;28;103514;-69
2021/03/17 14:56:41;;;;;;;2.40;2.00;;;;;;;4.52;94.84;99144.38;4906833;28;102949;-71
2021/03/17 14:59:12;;;;;;;1.60;1.50;;;;;;;4.12;93.87;99155.59;4912552;28;104412;-83
2021/03/17 15:01:39;;;;;;;1.67;1.53;;;;;;;3.41;96.57;99155.69;4924576;28;103901;-73
2021/03/17 15:04:09;;;;;;;3.17;1.80;;;;;;;2.89;99.15;99157.50;4913692;28;103027;-75
2021/03/17 15:06:37;;;;;;;2.10;1.90;;;;;;;2.89;100.00;99172.34;4924722;28;102938;-74